KPAM

Tyndall Air Force Base

Airport
ICAO code
KPAM
Summary
ICAO Region
NAM
ICAO Territory
Location

Panama City, Florida,

Coordinates
30° 4' 21" N , 85° 35' 50" W
KCC
Airport LOS
Parallel Runway Operation
Metar
KPAM 202055Z AUTO 26013KT 10SM CLR 17/M00 A3022 RMK AO2 SLP237 T01651003 57017 RVRNO FZRANO $

Description

Tyndall Air Force Base is a United States Air Force installation located 19 km east of the central business district of Panama City, Florida.

Climatology

Humid “subtropical” climate (Köppen climate classification Cfa) - characterized by hot, humid summers and cool winters. Significant amounts of precipitation occur in all seasons in most areas.

Runways

Designator Length Width Surface Rops
13R/31L 2784 46 PEM No/No
13L/31R 3049 61 CON No/No

Airport map

Aerial View

SKYbrary Partners:

Safety knowledge contributed by: